MSC Cordoba — A8OF8 — position and weather

sailwx.info

Track history (hours):
 
Tides and Currents Weather Stations Pressure Air Temp Water Temp Dewpoint Dewpoint Depression Visibility Wind Speed Wind Dir Waves Ship Positions

MSC Cordoba

Last reported at 2015-Sep-01 01:33 UTC. Time now 2015-Sep-01 01:56 UTC.
Position N 53°35' E 008°32'.

Length 274 m; draft 6.5 m.

Type: Cargo ship. MMSI: 636091473.

Date/timePositionNaut miles runAvg speedWind from/ knotsBaromVisibWave heightAir tempDewpointWater temp
2015-Sep-01 01:33N 53°35' E 008°32'0 0.0
2015-Sep-01 00:30N 53°35' E 008°32'0 0.0
2015-Aug-31 23:32N 53°35' E 008°32'0 0.0
2015-Aug-31 22:32N 53°35' E 008°32'6 5.7
2015-Aug-31 21:33N 53°39' E 008°25'1211.7
2015-Aug-31 20:33N 53°46' E 008°10'1211.7
2015-Aug-31 19:33N 53°52' E 007°53'4 3.6
2015-Aug-31 18:33N 53°56' E 007°52'0 0.1
2015-Aug-31 17:29N 53°56' E 007°52'0 0.0
2015-Aug-31 16:32N 53°56' E 007°52'0 0.0
2015-Aug-31 15:25N 53°56' E 007°52'0 0.0
2015-Aug-31 14:28N 53°56' E 007°52'0 0.0
2015-Aug-31 13:28N 53°56' E 007°52'0 0.0
2015-Aug-31 12:27N 53°56' E 007°52'0 0.0
2015-Aug-31 11:33N 53°56' E 007°52'0 0.0
2015-Aug-31 10:32N 53°56' E 007°52'0 0.0
2015-Aug-31 09:32N 53°56' E 007°52'0 0.0
2015-Aug-31 08:31N 53°56' E 007°52'0 0.1
2015-Aug-31 07:31N 53°56' E 007°52'0 0.0
2015-Aug-31 06:31N 53°56' E 007°52'0 0.0
2015-Aug-31 05:33N 53°56' E 007°52'0 0.0
2015-Aug-31 04:33N 53°56' E 007°52'0 0.0
2015-Aug-31 03:23N 53°56' E 007°52'0 0.0
2015-Aug-31 02:29N 53°56' E 007°52'0 0.0
2015-Aug-31 01:28N 53°56' E 007°52'0 0.0
2015-Aug-31 00:28N 53°56' E 007°52'0 0.0
2015-Aug-30 23:18N 53°56' E 007°52'0 0.0
2015-Aug-30 22:18N 53°56' E 007°52'0 0.0
2015-Aug-30 21:15N 53°56' E 007°52'0 0.0
2015-Aug-30 20:32N 53°56' E 007°52'0 0.0
2015-Aug-30 19:17N 53°56' E 007°52'0 0.0
2015-Aug-30 18:25N 53°56' E 007°52'0 0.0
2015-Aug-30 17:31N 53°56' E 007°52'0 0.0
2015-Aug-30 16:31N 53°56' E 007°52'0 0.0
2015-Aug-30 15:30N 53°56' E 007°52'0 0.0
2015-Aug-30 14:33N 53°56' E 007°52'0 0.0
2015-Aug-30 13:29N 53°56' E 007°52'0 0.0
2015-Aug-30 12:23N 53°56' E 007°52'0 0.0
2015-Aug-30 11:31N 53°56' E 007°52'0 0.0
2015-Aug-30 10:25N 53°56' E 007°52'0 0.0
2015-Aug-30 09:31N 53°56' E 007°52'0 0.0
2015-Aug-30 08:30N 53°56' E 007°52'0 0.0
2015-Aug-30 07:33N 53°56' E 007°52'0 0.0
2015-Aug-30 06:32N 53°56' E 007°52'3 5.7
2015-Aug-30 06:00N 53°54' E 007°48'3 6.1 070 / 31016.4 1.1 20.014.918.0
2015-Aug-30 05:29N 53°56' E 007°52'0 0.0
2015-Aug-30 04:31N 53°56' E 007°52'0 0.0
2015-Aug-30 03:31N 53°56' E 007°52'0 0.0
2015-Aug-30 02:31N 53°56' E 007°52'0 0.0
2015-Aug-30 01:30N 53°56' E 007°52'0 0.0
2015-Aug-30 00:33N 53°56' E 007°52'0 0.0
2015-Aug-29 23:17N 53°56' E 007°52'0 0.0
2015-Aug-29 22:32N 53°56' E 007°52'0 0.0
2015-Aug-29 21:28N 53°56' E 007°52'0 0.0
2015-Aug-29 20:31N 53°56' E 007°52'0 0.0
2015-Aug-29 19:30N 53°56' E 007°52'0 0.0
2015-Aug-29 18:27N 53°56' E 007°52'0 0.0
2015-Aug-29 17:33N 53°56' E 007°52'0 0.0
2015-Aug-29 16:32N 53°56' E 007°52'0 0.0
2015-Aug-29 15:32N 53°56' E 007°52'0 0.0
2015-Aug-29 14:17N 53°56' E 007°52'0 0.0
2015-Aug-29 13:31N 53°56' E 007°52'0 0.0
2015-Aug-29 12:30N 53°56' E 007°52'0 0.0
2015-Aug-29 11:24N 53°56' E 007°52'0 0.0
2015-Aug-29 10:30N 53°56' E 007°52'0 0.0
2015-Aug-29 09:29N 53°56' E 007°52'0 0.0
2015-Aug-29 08:29N 53°56' E 007°52'0 0.0
2015-Aug-29 07:31N 53°56' E 007°52'0 0.0
2015-Aug-29 06:28N 53°56' E 007°52'0 0.0
2015-Aug-29 05:30N 53°56' E 007°52'0 0.0
2015-Aug-29 04:33N 53°56' E 007°52'0 0.0
2015-Aug-29 03:33N 53°56' E 007°52'0 0.0
2015-Aug-29 02:32N 53°56' E 007°52'0 0.0
2015-Aug-29 01:29N 53°56' E 007°52'0 0.0
2015-Aug-29 00:28N 53°56' E 007°52'0 0.0
2015-Aug-28 23:31N 53°56' E 007°52'0 0.0
2015-Aug-28 22:33N 53°56' E 007°52'0 0.0
2015-Aug-28 21:27N 53°56' E 007°52'0 0.0
2015-Aug-28 20:33N 53°56' E 007°52'0 0.0
2015-Aug-28 19:32N 53°56' E 007°52'0 0.0
2015-Aug-28 18:29N 53°56' E 007°52'0 0.0
2015-Aug-28 17:22N 53°56' E 007°52'0 0.0
2015-Aug-28 16:28N 53°56' E 007°52'0 0.0
2015-Aug-28 15:33N 53°56' E 007°52'0 0.0
2015-Aug-28 14:33N 53°56' E 007°52'0 0.0
2015-Aug-28 13:26N 53°56' E 007°52'0 0.0
2015-Aug-28 12:29N 53°56' E 007°52'0 0.0
2015-Aug-28 11:26N 53°56' E 007°52'0 0.0
2015-Aug-28 10:16N 53°56' E 007°52'0 0.0
2015-Aug-28 09:31N 53°56' E 007°52'0 0.0
2015-Aug-28 08:33N 53°56' E 007°52'0 0.0
2015-Aug-28 07:33N 53°56' E 007°52'0 0.0
2015-Aug-28 06:32N 53°56' E 007°52'0 0.0
2015-Aug-28 05:29N 53°56' E 007°52'0 0.0
2015-Aug-28 04:32N 53°56' E 007°52'0 0.0
2015-Aug-28 03:31N 53°56' E 007°52'0 0.0
2015-Aug-28 02:31N 53°56' E 007°52'0 0.0
2015-Aug-28 01:33N 53°56' E 007°52'0 0.0
2015-Aug-28 00:33N 53°56' E 007°52'0 0.0
2015-Aug-27 23:29N 53°56' E 007°52'0 0.0
2015-Aug-27 22:32N 53°56' E 007°52'0 0.0
2015-Aug-27 21:32N 53°56' E 007°52'0 0.0
2015-Aug-27 20:31N 53°56' E 007°52'0 0.0
2015-Aug-27 19:25N 53°56' E 007°52'0 0.0
2015-Aug-27 18:33N 53°56' E 007°52'0 0.0
2015-Aug-27 17:30N 53°56' E 007°52'0 0.0
2015-Aug-27 16:32N 53°56' E 007°52'0 0.0
2015-Aug-27 15:32N 53°56' E 007°52'0 0.1
2015-Aug-27 14:32N 53°56' E 007°52'0 0.0
2015-Aug-27 13:31N 53°56' E 007°52'0 0.0
2015-Aug-27 12:28N 53°56' E 007°52'0 0.0
2015-Aug-27 11:27N 53°56' E 007°52'0 0.0
2015-Aug-27 10:27N 53°56' E 007°52'0 0.0
2015-Aug-27 09:32N 53°56' E 007°52'0 0.0
2015-Aug-27 08:32N 53°56' E 007°52'0 0.0
2015-Aug-27 07:19N 53°56' E 007°52'0 0.0
2015-Aug-27 05:31N 53°56' E 007°52'0 0.0
2015-Aug-27 04:06N 53°56' E 007°52'0 0.0
2015-Aug-27 03:24N 53°56' E 007°52'0 0.0
2015-Aug-27 02:29N 53°56' E 007°52'0 0.0
2015-Aug-27 01:26N 53°56' E 007°52'0 0.0
2015-Aug-27 00:32N 53°56' E 007°52'0 0.0
2015-Aug-26 23:28N 53°56' E 007°52'0 0.0
2015-Aug-26 21:15N 53°56' E 007°52'0 0.0
2015-Aug-26 20:33N 53°56' E 007°52'0 0.0
2015-Aug-26 19:26N 53°56' E 007°52'0 0.0
2015-Aug-26 17:07N 53°56' E 007°52'0 0.0
2015-Aug-26 14:24N 53°56' E 007°52'0 0.0
2015-Aug-26 13:33N 53°56' E 007°52'0 0.0
2015-Aug-26 12:23N 53°56' E 007°52'0 0.0
2015-Aug-26 11:29N 53°56' E 007°52'0 0.0
2015-Aug-26 10:32N 53°56' E 007°52'0 0.0
2015-Aug-26 09:31N 53°56' E 007°52'0 0.0
2015-Aug-26 08:25N 53°56' E 007°52'0 0.0
2015-Aug-26 07:33N 53°56' E 007°52'0 0.0
2015-Aug-26 06:33N 53°56' E 007°52'0 0.0
2015-Aug-26 05:20N 53°56' E 007°52'0 0.0
2015-Aug-26 04:32N 53°56' E 007°52'0 0.0
2015-Aug-26 03:31N 53°56' E 007°52'0 0.0
2015-Aug-26 02:31N 53°56' E 007°52'0 0.0
2015-Aug-26 01:28N 53°56' E 007°52'0 0.0
2015-Aug-26 00:30N 53°56' E 007°52'0 0.0
2015-Aug-25 23:30N 53°56' E 007°52'0 0.0
2015-Aug-25 22:29N 53°56' E 007°52'0 0.0
2015-Aug-25 21:32N 53°56' E 007°52'0 0.0
2015-Aug-25 20:31N 53°56' E 007°52'0 0.1
2015-Aug-25 19:28N 53°56' E 007°52'0 0.1
2015-Aug-25 18:31N 53°56' E 007°52'0 0.0
2015-Aug-25 17:27N 53°56' E 007°52'0 0.0
2015-Aug-25 16:30N 53°56' E 007°52'0 0.0
2015-Aug-25 15:29N 53°56' E 007°52'0 0.0
2015-Aug-25 14:32N 53°56' E 007°52'0 0.0
2015-Aug-25 13:31N 53°56' E 007°52'0 0.0
2015-Aug-25 12:25N 53°56' E 007°52'0 0.0
2015-Aug-25 11:24N 53°56' E 007°53'0 0.1
2015-Aug-25 10:30N 53°56' E 007°52'0 0.0
2015-Aug-25 09:30N 53°56' E 007°52'0 0.0
2015-Aug-25 08:23N 53°56' E 007°52'0 0.1
2015-Aug-25 07:32N 53°56' E 007°52'0 0.1
2015-Aug-25 06:31N 53°56' E 007°52'0 0.0
2015-Aug-25 05:19N 53°56' E 007°52'0 0.0
2015-Aug-25 04:21N 53°56' E 007°52'0 0.0
2015-Aug-25 03:33N 53°56' E 007°52'0 0.0
2015-Aug-25 02:30N 53°56' E 007°52'0 0.0
2015-Aug-25 01:32N 53°56' E 007°52'0 0.0
2015-Aug-25 00:29N 53°56' E 007°52'0 0.0
2015-Aug-24 23:25N 53°56' E 007°52'0 0.0
2015-Aug-24 22:31N 53°56' E 007°52'0 0.0
2015-Aug-24 21:34N 53°56' E 007°52'0 0.0
2015-Aug-24 20:30N 53°56' E 007°52'0 0.1
2015-Aug-24 19:30N 53°56' E 007°52'0 0.0
2015-Aug-24 18:32N 53°56' E 007°52'0 0.0
2015-Aug-24 17:23N 53°56' E 007°52'0 0.0
2015-Aug-24 16:28N 53°56' E 007°52'0 0.0
2015-Aug-24 15:28N 53°56' E 007°52'0 0.0
2015-Aug-24 14:30N 53°56' E 007°52'0 0.0
2015-Aug-24 13:33N 53°56' E 007°52'0 0.0
2015-Aug-24 12:27N 53°56' E 007°52'0 0.0
2015-Aug-24 11:32N 53°56' E 007°52'0 0.0
2015-Aug-24 10:29N 53°56' E 007°52'0 0.0
2015-Aug-24 09:31N 53°56' E 007°52'0 0.0
2015-Aug-24 08:28N 53°56' E 007°52'0 0.0
2015-Aug-24 07:18N 53°56' E 007°52'0 0.0
2015-Aug-24 06:30N 53°56' E 007°52'0 0.0
2015-Aug-24 05:33N 53°56' E 007°52'0 0.0
2015-Aug-24 04:26N 53°56' E 007°52'0 0.0
2015-Aug-24 03:32N 53°56' E 007°52'0 0.0
2015-Aug-24 02:28N 53°56' E 007°52'0 0.0
2015-Aug-24 01:28N 53°56' E 007°52'0 0.0
2015-Aug-24 00:31N 53°56' E 007°52'0 0.0
2015-Aug-23 23:33N 53°56' E 007°52'0 0.0
2015-Aug-23 22:33N 53°56' E 007°52'0 0.0
2015-Aug-23 21:20N 53°56' E 007°52'0 0.0
2015-Aug-23 20:32N 53°56' E 007°52'0 0.0
2015-Aug-23 19:25N 53°56' E 007°52'0 0.0
2015-Aug-23 18:31N 53°56' E 007°52'0 0.0
2015-Aug-23 17:33N 53°56' E 007°52'0 0.0
2015-Aug-23 16:30N 53°56' E 007°52'0 0.0
2015-Aug-23 15:17N 53°56' E 007°52'0 0.0
2015-Aug-23 14:32N 53°56' E 007°52'0 0.0
2015-Aug-23 13:32N 53°56' E 007°52'0 0.0
2015-Aug-23 12:31N 53°56' E 007°52'0 0.0
2015-Aug-23 11:13N 53°56' E 007°52'0 0.0
2015-Aug-23 10:33N 53°56' E 007°52'0 0.0
2015-Aug-23 09:33N 53°56' E 007°52'0 0.0
2015-Aug-23 08:33N 53°56' E 007°52'0 0.0
2015-Aug-23 07:32N 53°56' E 007°52'0 0.0
2015-Aug-23 06:32N 53°56' E 007°52'0 0.0
2015-Aug-23 05:31N 53°56' E 007°52'0 0.0
2015-Aug-23 04:31N 53°56' E 007°52'0 0.0
2015-Aug-23 03:33N 53°56' E 007°52'0 0.0
2015-Aug-23 02:33N 53°56' E 007°52'0 0.0
2015-Aug-23 01:33N 53°56' E 007°52'0 0.0
2015-Aug-23 00:32N 53°56' E 007°52'0 0.0
2015-Aug-22 23:32N 53°56' E 007°52'0 0.0
2015-Aug-22 22:22N 53°56' E 007°52'0 0.0
2015-Aug-22 21:28N 53°56' E 007°52'0 0.0
2015-Aug-22 20:33N 53°56' E 007°52'0 0.0
2015-Aug-22 19:33N 53°56' E 007°52'0 0.0
2015-Aug-22 18:32N 53°56' E 007°52'0 0.0
2015-Aug-22 17:32N 53°56' E 007°52'0 0.0
2015-Aug-22 16:26N 53°56' E 007°52'0 0.0
2015-Aug-22 15:18N 53°56' E 007°52'0 0.0
2015-Aug-22 14:28N 53°56' E 007°52'0 0.0
2015-Aug-22 13:33N 53°56' E 007°52'0 0.0
2015-Aug-22 12:30N 53°56' E 007°52'0 0.0
2015-Aug-22 11:23N 53°56' E 007°52'0 0.1
2015-Aug-22 10:26N 53°56' E 007°52'0 0.0
2015-Aug-22 09:29N 53°56' E 007°52'0 0.0
2015-Aug-22 08:31N 53°56' E 007°52'0 0.0
2015-Aug-22 07:22N 53°56' E 007°52'0 0.0
2015-Aug-22 06:33N 53°56' E 007°52'3 5.3
2015-Aug-22 06:00N 53°54' E 007°48'3 6.8 140 / 151017.9 1.1 0.521.314.818.0
2015-Aug-22 05:33N 53°56' E 007°52'0 0.0
2015-Aug-22 04:33N 53°56' E 007°52'0 0.0
2015-Aug-22 03:32N 53°56' E 007°52'0 0.0
2015-Aug-22 02:32N 53°56' E 007°52'  
Track history (hours):
 
Tides and Currents Weather Stations Pressure Air Temp Water Temp Dewpoint Dewpoint Depression Visibility Wind Speed Wind Dir Waves Ship Positions

MSC Cordoba

Last reported at 2015-Sep-01 01:33 UTC. Time now 2015-Sep-01 01:56 UTC.
Position N 53°35' E 008°32'.

Length 274 m; draft 6.5 m.

Type: Cargo ship. MMSI: 636091473.

Date/timePositionNaut miles runAvg speedWind from/ knotsBaromVisibWave heightAir tempDewpointWater temp
2015-Sep-01 01:33N 53°35' E 008°32'0 0.0
2015-Sep-01 00:30N 53°35' E 008°32'0 0.0
2015-Aug-31 23:32N 53°35' E 008°32'0 0.0
2015-Aug-31 22:32N 53°35' E 008°32'6 5.7
2015-Aug-31 21:33N 53°39' E 008°25'1211.7
2015-Aug-31 20:33N 53°46' E 008°10'1211.7
2015-Aug-31 19:33N 53°52' E 007°53'4 3.6
2015-Aug-31 18:33N 53°56' E 007°52'0 0.1
2015-Aug-31 17:29N 53°56' E 007°52'0 0.0
2015-Aug-31 16:32N 53°56' E 007°52'0 0.0
2015-Aug-31 15:25N 53°56' E 007°52'0 0.0
2015-Aug-31 14:28N 53°56' E 007°52'0 0.0
2015-Aug-31 13:28N 53°56' E 007°52'0 0.0
2015-Aug-31 12:27N 53°56' E 007°52'0 0.0
2015-Aug-31 11:33N 53°56' E 007°52'0 0.0
2015-Aug-31 10:32N 53°56' E 007°52'0 0.0
2015-Aug-31 09:32N 53°56' E 007°52'0 0.0
2015-Aug-31 08:31N 53°56' E 007°52'0 0.1
2015-Aug-31 07:31N 53°56' E 007°52'0 0.0
2015-Aug-31 06:31N 53°56' E 007°52'0 0.0
2015-Aug-31 05:33N 53°56' E 007°52'0 0.0
2015-Aug-31 04:33N 53°56' E 007°52'0 0.0
2015-Aug-31 03:23N 53°56' E 007°52'0 0.0
2015-Aug-31 02:29N 53°56' E 007°52'0 0.0
2015-Aug-31 01:28N 53°56' E 007°52'0 0.0
2015-Aug-31 00:28N 53°56' E 007°52'0 0.0
2015-Aug-30 23:18N 53°56' E 007°52'0 0.0
2015-Aug-30 22:18N 53°56' E 007°52'0 0.0
2015-Aug-30 21:15N 53°56' E 007°52'0 0.0
2015-Aug-30 20:32N 53°56' E 007°52'0 0.0
2015-Aug-30 19:17N 53°56' E 007°52'0 0.0
2015-Aug-30 18:25N 53°56' E 007°52'0 0.0
2015-Aug-30 17:31N 53°56' E 007°52'0 0.0
2015-Aug-30 16:31N 53°56' E 007°52'0 0.0
2015-Aug-30 15:30N 53°56' E 007°52'0 0.0
2015-Aug-30 14:33N 53°56' E 007°52'0 0.0
2015-Aug-30 13:29N 53°56' E 007°52'0 0.0
2015-Aug-30 12:23N 53°56' E 007°52'0 0.0
2015-Aug-30 11:31N 53°56' E 007°52'0 0.0
2015-Aug-30 10:25N 53°56' E 007°52'0 0.0
2015-Aug-30 09:31N 53°56' E 007°52'0 0.0
2015-Aug-30 08:30N 53°56' E 007°52'0 0.0
2015-Aug-30 07:33N 53°56' E 007°52'0 0.0
2015-Aug-30 06:32N 53°56' E 007°52'3 5.7
2015-Aug-30 06:00N 53°54' E 007°48'3 6.1 070 / 31016.4 1.1 20.014.918.0
2015-Aug-30 05:29N 53°56' E 007°52'0 0.0
2015-Aug-30 04:31N 53°56' E 007°52'0 0.0
2015-Aug-30 03:31N 53°56' E 007°52'0 0.0
2015-Aug-30 02:31N 53°56' E 007°52'0 0.0
2015-Aug-30 01:30N 53°56' E 007°52'0 0.0
2015-Aug-30 00:33N 53°56' E 007°52'0 0.0
2015-Aug-29 23:17N 53°56' E 007°52'0 0.0
2015-Aug-29 22:32N 53°56' E 007°52'0 0.0
2015-Aug-29 21:28N 53°56' E 007°52'0 0.0
2015-Aug-29 20:31N 53°56' E 007°52'0 0.0
2015-Aug-29 19:30N 53°56' E 007°52'0 0.0
2015-Aug-29 18:27N 53°56' E 007°52'0 0.0
2015-Aug-29 17:33N 53°56' E 007°52'0 0.0
2015-Aug-29 16:32N 53°56' E 007°52'0 0.0
2015-Aug-29 15:32N 53°56' E 007°52'0 0.0
2015-Aug-29 14:17N 53°56' E 007°52'0 0.0
2015-Aug-29 13:31N 53°56' E 007°52'0 0.0
2015-Aug-29 12:30N 53°56' E 007°52'0 0.0
2015-Aug-29 11:24N 53°56' E 007°52'0 0.0
2015-Aug-29 10:30N 53°56' E 007°52'0 0.0
2015-Aug-29 09:29N 53°56' E 007°52'0 0.0
2015-Aug-29 08:29N 53°56' E 007°52'0 0.0
2015-Aug-29 07:31N 53°56' E 007°52'0 0.0
2015-Aug-29 06:28N 53°56' E 007°52'0 0.0
2015-Aug-29 05:30N 53°56' E 007°52'0 0.0
2015-Aug-29 04:33N 53°56' E 007°52'0 0.0
2015-Aug-29 03:33N 53°56' E 007°52'0 0.0
2015-Aug-29 02:32N 53°56' E 007°52'0 0.0
2015-Aug-29 01:29N 53°56' E 007°52'0 0.0
2015-Aug-29 00:28N 53°56' E 007°52'0 0.0
2015-Aug-28 23:31N 53°56' E 007°52'0 0.0
2015-Aug-28 22:33N 53°56' E 007°52'0 0.0
2015-Aug-28 21:27N 53°56' E 007°52'0 0.0
2015-Aug-28 20:33N 53°56' E 007°52'0 0.0
2015-Aug-28 19:32N 53°56' E 007°52'0 0.0
2015-Aug-28 18:29N 53°56' E 007°52'0 0.0
2015-Aug-28 17:22N 53°56' E 007°52'0 0.0
2015-Aug-28 16:28N 53°56' E 007°52'0 0.0
2015-Aug-28 15:33N 53°56' E 007°52'0 0.0
2015-Aug-28 14:33N 53°56' E 007°52'0 0.0
2015-Aug-28 13:26N 53°56' E 007°52'0 0.0
2015-Aug-28 12:29N 53°56' E 007°52'0 0.0
2015-Aug-28 11:26N 53°56' E 007°52'0 0.0
2015-Aug-28 10:16N 53°56' E 007°52'0 0.0
2015-Aug-28 09:31N 53°56' E 007°52'0 0.0
2015-Aug-28 08:33N 53°56' E 007°52'0 0.0
2015-Aug-28 07:33N 53°56' E 007°52'0 0.0
2015-Aug-28 06:32N 53°56' E 007°52'0 0.0
2015-Aug-28 05:29N 53°56' E 007°52'0 0.0
2015-Aug-28 04:32N 53°56' E 007°52'0 0.0
2015-Aug-28 03:31N 53°56' E 007°52'0 0.0
2015-Aug-28 02:31N 53°56' E 007°52'0 0.0
2015-Aug-28 01:33N 53°56' E 007°52'0 0.0
2015-Aug-28 00:33N 53°56' E 007°52'0 0.0
2015-Aug-27 23:29N 53°56' E 007°52'0 0.0
2015-Aug-27 22:32N 53°56' E 007°52'0 0.0
2015-Aug-27 21:32N 53°56' E 007°52'0 0.0
2015-Aug-27 20:31N 53°56' E 007°52'0 0.0
2015-Aug-27 19:25N 53°56' E 007°52'0 0.0
2015-Aug-27 18:33N 53°56' E 007°52'0 0.0
2015-Aug-27 17:30N 53°56' E 007°52'0 0.0
2015-Aug-27 16:32N 53°56' E 007°52'0 0.0
2015-Aug-27 15:32N 53°56' E 007°52'0 0.1
2015-Aug-27 14:32N 53°56' E 007°52'0 0.0
2015-Aug-27 13:31N 53°56' E 007°52'0 0.0
2015-Aug-27 12:28N 53°56' E 007°52'0 0.0
2015-Aug-27 11:27N 53°56' E 007°52'0 0.0
2015-Aug-27 10:27N 53°56' E 007°52'0 0.0
2015-Aug-27 09:32N 53°56' E 007°52'0 0.0
2015-Aug-27 08:32N 53°56' E 007°52'0 0.0
2015-Aug-27 07:19N 53°56' E 007°52'0 0.0
2015-Aug-27 05:31N 53°56' E 007°52'0 0.0
2015-Aug-27 04:06N 53°56' E 007°52'0 0.0
2015-Aug-27 03:24N 53°56' E 007°52'0 0.0
2015-Aug-27 02:29N 53°56' E 007°52'0 0.0
2015-Aug-27 01:26N 53°56' E 007°52'0 0.0
2015-Aug-27 00:32N 53°56' E 007°52'0 0.0
2015-Aug-26 23:28N 53°56' E 007°52'0 0.0
2015-Aug-26 21:15N 53°56' E 007°52'0 0.0
2015-Aug-26 20:33N 53°56' E 007°52'0 0.0
2015-Aug-26 19:26N 53°56' E 007°52'0 0.0
2015-Aug-26 17:07N 53°56' E 007°52'0 0.0
2015-Aug-26 14:24N 53°56' E 007°52'0 0.0
2015-Aug-26 13:33N 53°56' E 007°52'0 0.0
2015-Aug-26 12:23N 53°56' E 007°52'0 0.0
2015-Aug-26 11:29N 53°56' E 007°52'0 0.0
2015-Aug-26 10:32N 53°56' E 007°52'0 0.0
2015-Aug-26 09:31N 53°56' E 007°52'0 0.0
2015-Aug-26 08:25N 53°56' E 007°52'0 0.0
2015-Aug-26 07:33N 53°56' E 007°52'0 0.0
2015-Aug-26 06:33N 53°56' E 007°52'0 0.0
2015-Aug-26 05:20N 53°56' E 007°52'0 0.0
2015-Aug-26 04:32N 53°56' E 007°52'0 0.0
2015-Aug-26 03:31N 53°56' E 007°52'0 0.0
2015-Aug-26 02:31N 53°56' E 007°52'0 0.0
2015-Aug-26 01:28N 53°56' E 007°52'0 0.0
2015-Aug-26 00:30N 53°56' E 007°52'0 0.0
2015-Aug-25 23:30N 53°56' E 007°52'0 0.0
2015-Aug-25 22:29N 53°56' E 007°52'0 0.0
2015-Aug-25 21:32N 53°56' E 007°52'0 0.0
2015-Aug-25 20:31N 53°56' E 007°52'0 0.1
2015-Aug-25 19:28N 53°56' E 007°52'0 0.1
2015-Aug-25 18:31N 53°56' E 007°52'0 0.0
2015-Aug-25 17:27N 53°56' E 007°52'0 0.0
2015-Aug-25 16:30N 53°56' E 007°52'0 0.0
2015-Aug-25 15:29N 53°56' E 007°52'0 0.0
2015-Aug-25 14:32N 53°56' E 007°52'0 0.0
2015-Aug-25 13:31N 53°56' E 007°52'0 0.0
2015-Aug-25 12:25N 53°56' E 007°52'0 0.0
2015-Aug-25 11:24N 53°56' E 007°53'0 0.1
2015-Aug-25 10:30N 53°56' E 007°52'0 0.0
2015-Aug-25 09:30N 53°56' E 007°52'0 0.0
2015-Aug-25 08:23N 53°56' E 007°52'0 0.1
2015-Aug-25 07:32N 53°56' E 007°52'0 0.1
2015-Aug-25 06:31N 53°56' E 007°52'0 0.0
2015-Aug-25 05:19N 53°56' E 007°52'0 0.0
2015-Aug-25 04:21N 53°56' E 007°52'0 0.0
2015-Aug-25 03:33N 53°56' E 007°52'0 0.0
2015-Aug-25 02:30N 53°56' E 007°52'0 0.0
2015-Aug-25 01:32N 53°56' E 007°52'0 0.0
2015-Aug-25 00:29N 53°56' E 007°52'0 0.0
2015-Aug-24 23:25N 53°56' E 007°52'0 0.0
2015-Aug-24 22:31N 53°56' E 007°52'0 0.0
2015-Aug-24 21:34N 53°56' E 007°52'0 0.0
2015-Aug-24 20:30N 53°56' E 007°52'0 0.1
2015-Aug-24 19:30N 53°56' E 007°52'0 0.0
2015-Aug-24 18:32N 53°56' E 007°52'0 0.0
2015-Aug-24 17:23N 53°56' E 007°52'0 0.0
2015-Aug-24 16:28N 53°56' E 007°52'0 0.0
2015-Aug-24 15:28N 53°56' E 007°52'0 0.0
2015-Aug-24 14:30N 53°56' E 007°52'0 0.0
2015-Aug-24 13:33N 53°56' E 007°52'0 0.0
2015-Aug-24 12:27N 53°56' E 007°52'0 0.0
2015-Aug-24 11:32N 53°56' E 007°52'0 0.0
2015-Aug-24 10:29N 53°56' E 007°52'0 0.0
2015-Aug-24 09:31N 53°56' E 007°52'0 0.0
2015-Aug-24 08:28N 53°56' E 007°52'0 0.0
2015-Aug-24 07:18N 53°56' E 007°52'0 0.0
2015-Aug-24 06:30N 53°56' E 007°52'0 0.0
2015-Aug-24 05:33N 53°56' E 007°52'0 0.0
2015-Aug-24 04:26N 53°56' E 007°52'0 0.0
2015-Aug-24 03:32N 53°56' E 007°52'0 0.0
2015-Aug-24 02:28N 53°56' E 007°52'0 0.0
2015-Aug-24 01:28N 53°56' E 007°52'0 0.0
2015-Aug-24 00:31N 53°56' E 007°52'0 0.0
2015-Aug-23 23:33N 53°56' E 007°52'0 0.0
2015-Aug-23 22:33N 53°56' E 007°52'0 0.0
2015-Aug-23 21:20N 53°56' E 007°52'0 0.0
2015-Aug-23 20:32N 53°56' E 007°52'0 0.0
2015-Aug-23 19:25N 53°56' E 007°52'0 0.0
2015-Aug-23 18:31N 53°56' E 007°52'0 0.0
2015-Aug-23 17:33N 53°56' E 007°52'0 0.0
2015-Aug-23 16:30N 53°56' E 007°52'0 0.0
2015-Aug-23 15:17N 53°56' E 007°52'0 0.0
2015-Aug-23 14:32N 53°56' E 007°52'0 0.0
2015-Aug-23 13:32N 53°56' E 007°52'0 0.0
2015-Aug-23 12:31N 53°56' E 007°52'0 0.0
2015-Aug-23 11:13N 53°56' E 007°52'0 0.0
2015-Aug-23 10:33N 53°56' E 007°52'0 0.0
2015-Aug-23 09:33N 53°56' E 007°52'0 0.0
2015-Aug-23 08:33N 53°56' E 007°52'0 0.0
2015-Aug-23 07:32N 53°56' E 007°52'0 0.0
2015-Aug-23 06:32N 53°56' E 007°52'0 0.0
2015-Aug-23 05:31N 53°56' E 007°52'0 0.0
2015-Aug-23 04:31N 53°56' E 007°52'0 0.0
2015-Aug-23 03:33N 53°56' E 007°52'0 0.0
2015-Aug-23 02:33N 53°56' E 007°52'0 0.0
2015-Aug-23 01:33N 53°56' E 007°52'0 0.0
2015-Aug-23 00:32N 53°56' E 007°52'0 0.0
2015-Aug-22 23:32N 53°56' E 007°52'0 0.0
2015-Aug-22 22:22N 53°56' E 007°52'0 0.0
2015-Aug-22 21:28N 53°56' E 007°52'0 0.0
2015-Aug-22 20:33N 53°56' E 007°52'0 0.0
2015-Aug-22 19:33N 53°56' E 007°52'0 0.0
2015-Aug-22 18:32N 53°56' E 007°52'0 0.0
2015-Aug-22 17:32N 53°56' E 007°52'0 0.0
2015-Aug-22 16:26N 53°56' E 007°52'0 0.0
2015-Aug-22 15:18N 53°56' E 007°52'0 0.0
2015-Aug-22 14:28N 53°56' E 007°52'0 0.0
2015-Aug-22 13:33N 53°56' E 007°52'0 0.0
2015-Aug-22 12:30N 53°56' E 007°52'0 0.0
2015-Aug-22 11:23N 53°56' E 007°52'0 0.1
2015-Aug-22 10:26N 53°56' E 007°52'0 0.0
2015-Aug-22 09:29N 53°56' E 007°52'0 0.0
2015-Aug-22 08:31N 53°56' E 007°52'0 0.0
2015-Aug-22 07:22N 53°56' E 007°52'0 0.0
2015-Aug-22 06:33N 53°56' E 007°52'3 5.3
2015-Aug-22 06:00N 53°54' E 007°48'3 6.8 140 / 151017.9 1.1 0.521.314.818.0
2015-Aug-22 05:33N 53°56' E 007°52'0 0.0
2015-Aug-22 04:33N 53°56' E 007°52'0 0.0
2015-Aug-22 03:32N 53°56' E 007°52'0 0.0
2015-Aug-22 02:32N 53°56' E 007°52'  

Dump ship's entire track history